sensor_id;sensor_type;location;lat;lon;timestamp;temperature;humidity
17421;DHT22;8828;48.800;9.540;2022-10-31T00:00:46;13.60;99.90
17421;DHT22;8828;48.800;9.540;2022-10-31T00:03:15;13.60;99.90
17421;DHT22;8828;48.800;9.540;2022-10-31T00:05:44;13.60;99.90
17421;DHT22;8828;48.800;9.540;2022-10-31T00:08:13;13.60;99.90
17421;DHT22;8828;48.800;9.540;2022-10-31T00:10:41;13.60;99.90
17421;DHT22;8828;48.800;9.540;2022-10-31T00:13:10;13.50;99.90
17421;DHT22;8828;48.800;9.540;2022-10-31T00:15:40;13.50;99.90
17421;DHT22;8828;48.800;9.540;2022-10-31T00:18:09;13.50;99.90
17421;DHT22;8828;48.800;9.540;2022-10-31T00:20:37;13.50;99.90
17421;DHT22;8828;48.800;9.540;2022-10-31T00:23:06;13.50;99.90
17421;DHT22;8828;48.800;9.540;2022-10-31T00:25:35;13.40;99.90
17421;DHT22;8828;48.800;9.540;2022-10-31T00:28:04;13.40;99.90
17421;DHT22;8828;48.800;9.540;2022-10-31T00:30:33;13.30;99.90
17421;DHT22;8828;48.800;9.540;2022-10-31T00:33:04;13.30;99.90
17421;DHT22;8828;48.800;9.540;2022-10-31T00:35:32;13.30;99.90
17421;DHT22;8828;48.800;9.540;2022-10-31T00:38:00;13.30;99.90
17421;DHT22;8828;48.800;9.540;2022-10-31T00:40:28;13.30;99.90
17421;DHT22;8828;48.800;9.540;2022-10-31T00:42:56;13.30;99.90
17421;DHT22;8828;48.800;9.540;2022-10-31T00:45:24;13.30;99.90
17421;DHT22;8828;48.800;9.540;2022-10-31T00:47:52;13.20;99.90
17421;DHT22;8828;48.800;9.540;2022-10-31T00:50:21;13.20;99.90
17421;DHT22;8828;48.800;9.540;2022-10-31T00:52:49;13.20;99.90
17421;DHT22;8828;48.800;9.540;2022-10-31T00:55:17;13.20;99.90
17421;DHT22;8828;48.800;9.540;2022-10-31T00:57:46;13.20;99.90
17421;DHT22;8828;48.800;9.540;2022-10-31T01:00:14;13.20;99.90
17421;DHT22;8828;48.800;9.540;2022-10-31T01:02:43;13.20;99.90
17421;DHT22;8828;48.800;9.540;2022-10-31T01:05:11;13.10;99.90
17421;DHT22;8828;48.800;9.540;2022-10-31T01:07:40;13.10;99.90
17421;DHT22;8828;48.800;9.540;2022-10-31T01:10:09;13.10;99.90
17421;DHT22;8828;48.800;9.540;2022-10-31T01:12:37;13.00;99.90
17421;DHT22;8828;48.800;9.540;2022-10-31T01:15:06;13.00;99.90
17421;DHT22;8828;48.800;9.540;2022-10-31T01:17:35;13.00;99.90
17421;DHT22;8828;48.800;9.540;2022-10-31T01:20:03;12.90;99.90
17421;DHT22;8828;48.800;9.540;2022-10-31T01:22:32;12.90;99.90
17421;DHT22;8828;48.800;9.540;2022-10-31T01:25:01;12.90;99.90
17421;DHT22;8828;48.800;9.540;2022-10-31T01:27:29;12.90;99.90
17421;DHT22;8828;48.800;9.540;2022-10-31T01:29:58;12.90;99.90
17421;DHT22;8828;48.800;9.540;2022-10-31T01:32:26;12.90;99.90
17421;DHT22;8828;48.800;9.540;2022-10-31T01:34:55;12.90;99.90
17421;DHT22;8828;48.800;9.540;2022-10-31T01:37:23;12.90;99.90
17421;DHT22;8828;48.800;9.540;2022-10-31T01:39:51;12.90;99.90
17421;DHT22;8828;48.800;9.540;2022-10-31T01:42:22;12.80;99.90
17421;DHT22;8828;48.800;9.540;2022-10-31T01:44:57;12.80;99.90
17421;DHT22;8828;48.800;9.540;2022-10-31T01:47:35;12.80;99.90
17421;DHT22;8828;48.800;9.540;2022-10-31T01:50:11;12.80;99.90
17421;DHT22;8828;48.800;9.540;2022-10-31T01:52:43;12.90;99.90
17421;DHT22;8828;48.800;9.540;2022-10-31T01:55:14;12.90;99.90
17421;DHT22;8828;48.800;9.540;2022-10-31T01:57:47;12.90;99.90
17421;DHT22;8828;48.800;9.540;2022-10-31T02:00:16;12.90;99.90
17421;DHT22;8828;48.800;9.540;2022-10-31T02:02:45;12.90;99.90
17421;DHT22;8828;48.800;9.540;2022-10-31T02:05:16;12.80;99.90
17421;DHT22;8828;48.800;9.540;2022-10-31T02:07:50;12.80;99.90
17421;DHT22;8828;48.800;9.540;2022-10-31T02:10:20;12.80;99.90
17421;DHT22;8828;48.800;9.540;2022-10-31T02:12:50;12.80;99.90
17421;DHT22;8828;48.800;9.540;2022-10-31T02:15:19;12.70;99.90
17421;DHT22;8828;48.800;9.540;2022-10-31T02:17:47;12.70;99.90
17421;DHT22;8828;48.800;9.540;2022-10-31T02:20:17;12.70;99.90
17421;DHT22;8828;48.800;9.540;2022-10-31T02:29:06;12.60;99.90
17421;DHT22;8828;48.800;9.540;2022-10-31T02:31:43;12.60;99.90
17421;DHT22;8828;48.800;9.540;2022-10-31T02:34:18;12.60;99.90
17421;DHT22;8828;48.800;9.540;2022-10-31T02:36:53;12.60;99.90
17421;DHT22;8828;48.800;9.540;2022-10-31T02:39:25;12.60;99.90
17421;DHT22;8828;48.800;9.540;2022-10-31T02:42:03;12.60;99.90
17421;DHT22;8828;48.800;9.540;2022-10-31T02:44:37;12.60;99.90
17421;DHT22;8828;48.800;9.540;2022-10-31T02:47:11;12.50;99.90
17421;DHT22;8828;48.800;9.540;2022-10-31T02:49:43;12.50;99.90
17421;DHT22;8828;48.800;9.540;2022-10-31T02:52:16;12.50;99.90
17421;DHT22;8828;48.800;9.540;2022-10-31T02:54:46;12.50;99.90
17421;DHT22;8828;48.800;9.540;2022-10-31T02:57:17;12.50;99.90
17421;DHT22;8828;48.800;9.540;2022-10-31T02:59:48;12.50;99.90
17421;DHT22;8828;48.800;9.540;2022-10-31T03:02:26;12.50;99.90
17421;DHT22;8828;48.800;9.540;2022-10-31T03:05:14;12.40;99.90
17421;DHT22;8828;48.800;9.540;2022-10-31T03:07:53;12.50;99.90
17421;DHT22;8828;48.800;9.540;2022-10-31T03:10:31;12.50;99.90
17421;DHT22;8828;48.800;9.540;2022-10-31T03:13:08;12.50;99.90
17421;DHT22;8828;48.800;9.540;2022-10-31T03:15:38;12.50;99.90
17421;DHT22;8828;48.800;9.540;2022-10-31T03:18:11;12.40;99.90
17421;DHT22;8828;48.800;9.540;2022-10-31T03:20:43;12.40;99.90
17421;DHT22;8828;48.800;9.540;2022-10-31T03:23:15;12.40;99.90
17421;DHT22;8828;48.800;9.540;2022-10-31T03:25:46;12.30;99.90
17421;DHT22;8828;48.800;9.540;2022-10-31T03:28:18;12.30;99.90
17421;DHT22;8828;48.800;9.540;2022-10-31T03:30:47;12.30;99.90
17421;DHT22;8828;48.800;9.540;2022-10-31T03:33:21;12.30;99.90
17421;DHT22;8828;48.800;9.540;2022-10-31T03:35:53;12.30;99.90
17421;DHT22;8828;48.800;9.540;2022-10-31T03:38:22;12.30;99.90
17421;DHT22;8828;48.800;9.540;2022-10-31T03:40:51;12.30;99.90
17421;DHT22;8828;48.800;9.540;2022-10-31T03:43:24;12.20;99.90
17421;DHT22;8828;48.800;9.540;2022-10-31T03:45:53;12.20;99.90
17421;DHT22;8828;48.800;9.540;2022-10-31T03:48:23;12.20;99.90
17421;DHT22;8828;48.800;9.540;2022-10-31T03:51:06;12.20;99.90
17421;DHT22;8828;48.800;9.540;2022-10-31T03:53:39;12.10;99.90
17421;DHT22;8828;48.800;9.540;2022-10-31T03:56:11;12.10;99.90
17421;DHT22;8828;48.800;9.540;2022-10-31T03:58:45;12.10;99.90
17421;DHT22;8828;48.800;9.540;2022-10-31T04:01:17;12.00;99.90
17421;DHT22;8828;48.800;9.540;2022-10-31T04:03:48;12.00;99.90
17421;DHT22;8828;48.800;9.540;2022-10-31T04:06:18;12.00;99.90
17421;DHT22;8828;48.800;9.540;2022-10-31T04:08:49;12.00;99.90
17421;DHT22;8828;48.800;9.540;2022-10-31T04:11:21;12.00;99.90
17421;DHT22;8828;48.800;9.540;2022-10-31T04:13:51;12.00;99.90
17421;DHT22;8828;48.800;9.540;2022-10-31T04:16:20;12.00;99.90
17421;DHT22;8828;48.800;9.540;2022-10-31T04:18:50;11.90;99.90
17421;DHT22;8828;48.800;9.540;2022-10-31T04:21:18;11.90;99.90
17421;DHT22;8828;48.800;9.540;2022-10-31T04:23:46;11.90;99.90
17421;DHT22;8828;48.800;9.540;2022-10-31T04:26:14;11.90;99.90
17421;DHT22;8828;48.800;9.540;2022-10-31T04:28:42;11.90;99.90
17421;DHT22;8828;48.800;9.540;2022-10-31T04:31:11;11.90;99.90
17421;DHT22;8828;48.800;9.540;2022-10-31T04:33:39;11.90;99.90
17421;DHT22;8828;48.800;9.540;2022-10-31T04:36:08;11.80;99.90
17421;DHT22;8828;48.800;9.540;2022-10-31T04:38:37;11.80;99.90
17421;DHT22;8828;48.800;9.540;2022-10-31T04:41:05;11.80;99.90
17421;DHT22;8828;48.800;9.540;2022-10-31T04:43:33;11.90;99.90
17421;DHT22;8828;48.800;9.540;2022-10-31T04:46:01;11.80;99.90
17421;DHT22;8828;48.800;9.540;2022-10-31T04:48:29;11.90;99.90
17421;DHT22;8828;48.800;9.540;2022-10-31T04:51:00;11.80;99.90
17421;DHT22;8828;48.800;9.540;2022-10-31T04:53:30;11.80;99.90
17421;DHT22;8828;48.800;9.540;2022-10-31T04:55:58;11.80;99.90
17421;DHT22;8828;48.800;9.540;2022-10-31T04:58:27;11.70;99.90
17421;DHT22;8828;48.800;9.540;2022-10-31T05:00:56;11.70;99.90
17421;DHT22;8828;48.800;9.540;2022-10-31T05:03:24;11.70;99.90
17421;DHT22;8828;48.800;9.540;2022-10-31T05:05:51;11.70;99.90
17421;DHT22;8828;48.800;9.540;2022-10-31T05:08:19;11.70;99.90
17421;DHT22;8828;48.800;9.540;2022-10-31T05:10:48;11.70;99.90
17421;DHT22;8828;48.800;9.540;2022-10-31T05:13:16;11.60;99.90
17421;DHT22;8828;48.800;9.540;2022-10-31T05:15:44;11.60;99.90
17421;DHT22;8828;48.800;9.540;2022-10-31T05:18:12;11.70;99.90
17421;DHT22;8828;48.800;9.540;2022-10-31T05:20:40;11.70;99.90
17421;DHT22;8828;48.800;9.540;2022-10-31T05:23:08;11.60;99.90
17421;DHT22;8828;48.800;9.540;2022-10-31T05:25:36;11.60;99.90
17421;DHT22;8828;48.800;9.540;2022-10-31T05:28:05;11.60;99.90
17421;DHT22;8828;48.800;9.540;2022-10-31T05:30:33;11.50;99.90
17421;DHT22;8828;48.800;9.540;2022-10-31T05:33:01;11.50;99.90
17421;DHT22;8828;48.800;9.540;2022-10-31T05:35:31;11.50;99.90
17421;DHT22;8828;48.800;9.540;2022-10-31T05:37:59;11.50;99.90
17421;DHT22;8828;48.800;9.540;2022-10-31T05:40:28;11.50;99.90
17421;DHT22;8828;48.800;9.540;2022-10-31T05:42:57;11.50;99.90
17421;DHT22;8828;48.800;9.540;2022-10-31T05:45:27;11.40;99.90
17421;DHT22;8828;48.800;9.540;2022-10-31T05:47:56;11.40;99.90
17421;DHT22;8828;48.800;9.540;2022-10-31T05:50:27;11.40;99.90
17421;DHT22;8828;48.800;9.540;2022-10-31T05:52:56;11.40;99.90
17421;DHT22;8828;48.800;9.540;2022-10-31T05:55:25;11.40;99.90
17421;DHT22;8828;48.800;9.540;2022-10-31T05:57:53;11.40;99.90
17421;DHT22;8828;48.800;9.540;2022-10-31T06:00:21;11.40;99.90
17421;DHT22;8828;48.800;9.540;2022-10-31T06:02:57;11.40;99.90
17421;DHT22;8828;48.800;9.540;2022-10-31T06:05:25;11.40;99.90
17421;DHT22;8828;48.800;9.540;2022-10-31T06:07:53;11.30;99.90
17421;DHT22;8828;48.800;9.540;2022-10-31T06:10:22;11.30;99.90
17421;DHT22;8828;48.800;9.540;2022-10-31T06:12:50;11.30;99.90
17421;DHT22;8828;48.800;9.540;2022-10-31T06:15:18;11.30;99.90
17421;DHT22;8828;48.800;9.540;2022-10-31T06:17:59;11.40;99.90
17421;DHT22;8828;48.800;9.540;2022-10-31T06:20:28;11.30;99.90
17421;DHT22;8828;48.800;9.540;2022-10-31T06:22:56;11.30;99.90
17421;DHT22;8828;48.800;9.540;2022-10-31T06:25:24;11.30;99.90
17421;DHT22;8828;48.800;9.540;2022-10-31T06:27:52;11.30;99.90
17421;DHT22;8828;48.800;9.540;2022-10-31T06:30:20;11.40;99.90
17421;DHT22;8828;48.800;9.540;2022-10-31T06:32:48;11.40;99.90
17421;DHT22;8828;48.800;9.540;2022-10-31T06:35:18;11.40;99.90
17421;DHT22;8828;48.800;9.540;2022-10-31T06:37:51;11.40;99.90
17421;DHT22;8828;48.800;9.540;2022-10-31T06:40:19;11.40;99.90
17421;DHT22;8828;48.800;9.540;2022-10-31T06:42:55;11.40;99.90
17421;DHT22;8828;48.800;9.540;2022-10-31T06:45:24;11.40;99.90
17421;DHT22;8828;48.800;9.540;2022-10-31T06:47:52;11.40;99.90
17421;DHT22;8828;48.800;9.540;2022-10-31T06:50:41;11.50;99.90
17421;DHT22;8828;48.800;9.540;2022-10-31T06:53:09;11.50;99.90
17421;DHT22;8828;48.800;9.540;2022-10-31T06:55:37;11.60;99.90
17421;DHT22;8828;48.800;9.540;2022-10-31T06:58:05;11.60;99.90
17421;DHT22;8828;48.800;9.540;2022-10-31T07:00:33;11.60;99.90
17421;DHT22;8828;48.800;9.540;2022-10-31T07:03:03;11.70;99.90
17421;DHT22;8828;48.800;9.540;2022-10-31T07:05:31;11.70;99.90
17421;DHT22;8828;48.800;9.540;2022-10-31T07:08:02;11.70;99.90
17421;DHT22;8828;48.800;9.540;2022-10-31T07:10:33;11.80;99.90
17421;DHT22;8828;48.800;9.540;2022-10-31T07:13:09;11.80;99.90
17421;DHT22;8828;48.800;9.540;2022-10-31T07:15:39;11.80;99.90
17421;DHT22;8828;48.800;9.540;2022-10-31T07:18:09;11.90;99.90
17421;DHT22;8828;48.800;9.540;2022-10-31T07:20:37;11.90;99.90
17421;DHT22;8828;48.800;9.540;2022-10-31T07:23:08;11.90;99.90
17421;DHT22;8828;48.800;9.540;2022-10-31T07:25:36;12.00;99.90
17421;DHT22;8828;48.800;9.540;2022-10-31T07:28:04;12.10;99.90
17421;DHT22;8828;48.800;9.540;2022-10-31T07:30:32;12.10;99.90
17421;DHT22;8828;48.800;9.540;2022-10-31T07:33:00;12.30;99.90
17421;DHT22;8828;48.800;9.540;2022-10-31T07:35:28;12.40;99.90
17421;DHT22;8828;48.800;9.540;2022-10-31T07:37:57;12.50;99.90
17421;DHT22;8828;48.800;9.540;2022-10-31T07:40:26;12.50;99.90
17421;DHT22;8828;48.800;9.540;2022-10-31T07:42:54;12.60;99.90
17421;DHT22;8828;48.800;9.540;2022-10-31T07:45:22;12.60;99.90
17421;DHT22;8828;48.800;9.540;2022-10-31T07:47:51;12.70;99.90
17421;DHT22;8828;48.800;9.540;2022-10-31T07:50:21;12.80;99.90
17421;DHT22;8828;48.800;9.540;2022-10-31T07:52:58;12.80;99.90
17421;DHT22;8828;48.800;9.540;2022-10-31T07:55:28;12.90;99.90
17421;DHT22;8828;48.800;9.540;2022-10-31T07:57:58;12.90;99.90
17421;DHT22;8828;48.800;9.540;2022-10-31T08:00:26;13.00;99.90
17421;DHT22;8828;48.800;9.540;2022-10-31T08:02:58;13.10;99.90
17421;DHT22;8828;48.800;9.540;2022-10-31T08:05:27;13.10;99.90
17421;DHT22;8828;48.800;9.540;2022-10-31T08:07:55;13.20;99.90
17421;DHT22;8828;48.800;9.540;2022-10-31T08:10:26;13.30;99.90
17421;DHT22;8828;48.800;9.540;2022-10-31T08:12:56;13.40;99.90
17421;DHT22;8828;48.800;9.540;2022-10-31T08:15:24;13.40;99.90
17421;DHT22;8828;48.800;9.540;2022-10-31T08:17:53;13.60;99.90
17421;DHT22;8828;48.800;9.540;2022-10-31T08:20:21;13.60;99.90
17421;DHT22;8828;48.800;9.540;2022-10-31T08:22:56;13.80;99.90
17421;DHT22;8828;48.800;9.540;2022-10-31T08:25:27;13.90;99.90
17421;DHT22;8828;48.800;9.540;2022-10-31T08:28:01;13.90;99.90
17421;DHT22;8828;48.800;9.540;2022-10-31T08:30:32;14.00;99.90
17421;DHT22;8828;48.800;9.540;2022-10-31T08:33:02;14.10;99.90
17421;DHT22;8828;48.800;9.540;2022-10-31T08:35:31;14.30;99.90
17421;DHT22;8828;48.800;9.540;2022-10-31T08:38:00;14.40;99.90
17421;DHT22;8828;48.800;9.540;2022-10-31T08:40:31;14.60;99.90
17421;DHT22;8828;48.800;9.540;2022-10-31T08:43:01;14.80;99.90
17421;DHT22;8828;48.800;9.540;2022-10-31T08:45:31;15.00;99.90
17421;DHT22;8828;48.800;9.540;2022-10-31T08:48:00;15.20;99.90
17421;DHT22;8828;48.800;9.540;2022-10-31T08:50:31;15.40;99.90
17421;DHT22;8828;48.800;9.540;2022-10-31T08:53:00;15.60;99.90
17421;DHT22;8828;48.800;9.540;2022-10-31T08:55:33;15.90;99.90
17421;DHT22;8828;48.800;9.540;2022-10-31T08:58:03;16.10;99.90
17421;DHT22;8828;48.800;9.540;2022-10-31T09:00:32;16.20;99.90
17421;DHT22;8828;48.800;9.540;2022-10-31T09:03:02;16.40;99.90
17421;DHT22;8828;48.800;9.540;2022-10-31T09:05:31;16.70;99.90
17421;DHT22;8828;48.800;9.540;2022-10-31T09:08:01;17.00;99.90
17421;DHT22;8828;48.800;9.540;2022-10-31T09:10:30;17.10;99.90
17421;DHT22;8828;48.800;9.540;2022-10-31T09:13:01;17.20;99.90
17421;DHT22;8828;48.800;9.540;2022-10-31T09:15:30;17.20;99.90
17421;DHT22;8828;48.800;9.540;2022-10-31T09:17:58;17.30;99.90
17421;DHT22;8828;48.800;9.540;2022-10-31T09:20:27;17.40;99.90
17421;DHT22;8828;48.800;9.540;2022-10-31T09:22:56;17.50;99.90
17421;DHT22;8828;48.800;9.540;2022-10-31T09:25:24;17.60;99.90
17421;DHT22;8828;48.800;9.540;2022-10-31T09:27:55;17.70;99.90
17421;DHT22;8828;48.800;9.540;2022-10-31T09:30:28;17.90;99.90
17421;DHT22;8828;48.800;9.540;2022-10-31T09:32:57;18.00;99.90
17421;DHT22;8828;48.800;9.540;2022-10-31T09:35:25;18.20;99.90
17421;DHT22;8828;48.800;9.540;2022-10-31T09:37:54;18.50;99.90
17421;DHT22;8828;48.800;9.540;2022-10-31T09:40:25;18.90;99.90
17421;DHT22;8828;48.800;9.540;2022-10-31T09:43:00;19.30;99.90
17421;DHT22;8828;48.800;9.540;2022-10-31T09:45:37;19.70;99.90
17421;DHT22;8828;48.800;9.540;2022-10-31T09:50:57;20.40;99.90
17421;DHT22;8828;48.800;9.540;2022-10-31T09:53:33;20.70;99.90
17421;DHT22;8828;48.800;9.540;2022-10-31T09:56:05;21.00;99.90
17421;DHT22;8828;48.800;9.540;2022-10-31T09:58:40;21.30;99.90
17421;DHT22;8828;48.800;9.540;2022-10-31T10:01:21;21.60;99.90
17421;DHT22;8828;48.800;9.540;2022-10-31T10:03:54;22.00;99.90
17421;DHT22;8828;48.800;9.540;2022-10-31T10:06:25;22.20;99.90
17421;DHT22;8828;48.800;9.540;2022-10-31T10:08:55;22.50;99.90
17421;DHT22;8828;48.800;9.540;2022-10-31T10:11:39;22.90;99.90
17421;DHT22;8828;48.800;9.540;2022-10-31T10:14:29;23.20;99.90
17421;DHT22;8828;48.800;9.540;2022-10-31T10:17:22;23.40;99.90
17421;DHT22;8828;48.800;9.540;2022-10-31T10:20:04;23.70;99.90
17421;DHT22;8828;48.800;9.540;2022-10-31T10:22:42;24.00;99.90
17421;DHT22;8828;48.800;9.540;2022-10-31T10:25:22;24.20;99.90
17421;DHT22;8828;48.800;9.540;2022-10-31T10:28:00;24.40;99.90
17421;DHT22;8828;48.800;9.540;2022-10-31T10:30:35;24.50;99.90
17421;DHT22;8828;48.800;9.540;2022-10-31T10:33:11;24.50;99.90
17421;DHT22;8828;48.800;9.540;2022-10-31T10:35:45;24.40;99.90
17421;DHT22;8828;48.800;9.540;2022-10-31T10:38:22;24.50;99.90
17421;DHT22;8828;48.800;9.540;2022-10-31T10:40:52;24.50;99.90
17421;DHT22;8828;48.800;9.540;2022-10-31T10:43:23;24.80;99.90
17421;DHT22;8828;48.800;9.540;2022-10-31T10:46:06;25.10;99.90
17421;DHT22;8828;48.800;9.540;2022-10-31T10:49:07;25.60;99.90
17421;DHT22;8828;48.800;9.540;2022-10-31T10:51:41;26.10;99.90
17421;DHT22;8828;48.800;9.540;2022-10-31T10:54:41;26.50;99.90
17421;DHT22;8828;48.800;9.540;2022-10-31T10:57:21;26.60;99.90
17421;DHT22;8828;48.800;9.540;2022-10-31T10:59:51;26.50;99.90
17421;DHT22;8828;48.800;9.540;2022-10-31T11:02:21;26.30;99.90
17421;DHT22;8828;48.800;9.540;2022-10-31T11:04:53;25.90;99.90
17421;DHT22;8828;48.800;9.540;2022-10-31T11:07:21;25.40;99.90
17421;DHT22;8828;48.800;9.540;2022-10-31T11:09:49;24.90;99.90
17421;DHT22;8828;48.800;9.540;2022-10-31T11:12:20;24.40;99.90
17421;DHT22;8828;48.800;9.540;2022-10-31T11:14:52;24.00;99.90
17421;DHT22;8828;48.800;9.540;2022-10-31T11:17:27;23.50;99.90
17421;DHT22;8828;48.800;9.540;2022-10-31T11:20:04;23.10;99.90
17421;DHT22;8828;48.800;9.540;2022-10-31T11:22:32;22.80;99.90
17421;DHT22;8828;48.800;9.540;2022-10-31T11:25:00;22.50;99.90
17421;DHT22;8828;48.800;9.540;2022-10-31T11:27:28;22.20;99.90
17421;DHT22;8828;48.800;9.540;2022-10-31T11:30:04;21.90;99.90
17421;DHT22;8828;48.800;9.540;2022-10-31T11:32:33;21.60;99.90
17421;DHT22;8828;48.800;9.540;2022-10-31T11:35:08;21.40;99.90
17421;DHT22;8828;48.800;9.540;2022-10-31T11:37:41;21.40;99.90
17421;DHT22;8828;48.800;9.540;2022-10-31T11:40:16;21.60;99.90
17421;DHT22;8828;48.800;9.540;2022-10-31T11:42:45;21.80;99.90
17421;DHT22;8828;48.800;9.540;2022-10-31T11:45:15;22.00;99.90
17421;DHT22;8828;48.800;9.540;2022-10-31T11:47:46;22.20;99.90
17421;DHT22;8828;48.800;9.540;2022-10-31T11:50:19;22.40;99.90
17421;DHT22;8828;48.800;9.540;2022-10-31T11:52:48;22.70;99.90
17421;DHT22;8828;48.800;9.540;2022-10-31T11:55:30;22.90;99.90
17421;DHT22;8828;48.800;9.540;2022-10-31T11:57:59;23.10;99.90
17421;DHT22;8828;48.800;9.540;2022-10-31T12:00:29;23.30;99.90
17421;DHT22;8828;48.800;9.540;2022-10-31T12:03:14;23.50;99.90
17421;DHT22;8828;48.800;9.540;2022-10-31T12:05:45;23.50;99.90
17421;DHT22;8828;48.800;9.540;2022-10-31T12:08:14;23.40;99.90
17421;DHT22;8828;48.800;9.540;2022-10-31T12:10:48;23.20;99.90
17421;DHT22;8828;48.800;9.540;2022-10-31T12:13:30;23.10;99.90
17421;DHT22;8828;48.800;9.540;2022-10-31T12:16:05;22.90;99.90
17421;DHT22;8828;48.800;9.540;2022-10-31T12:18:45;22.90;99.90
17421;DHT22;8828;48.800;9.540;2022-10-31T12:24:22;23.20;99.90
17421;DHT22;8828;48.800;9.540;2022-10-31T12:26:59;23.40;99.90
17421;DHT22;8828;48.800;9.540;2022-10-31T12:29:44;23.60;99.90
17421;DHT22;8828;48.800;9.540;2022-10-31T12:32:23;23.70;99.90
17421;DHT22;8828;48.800;9.540;2022-10-31T12:35:30;24.00;99.90
17421;DHT22;8828;48.800;9.540;2022-10-31T12:38:15;24.80;99.90
17421;DHT22;8828;48.800;9.540;2022-10-31T12:41:07;25.30;99.90
17421;DHT22;8828;48.800;9.540;2022-10-31T12:43:46;25.30;99.90
17421;DHT22;8828;48.800;9.540;2022-10-31T12:46:23;24.90;99.90
17421;DHT22;8828;48.800;9.540;2022-10-31T12:49:35;24.50;99.90
17421;DHT22;8828;48.800;9.540;2022-10-31T12:52:21;23.70;99.90
17421;DHT22;8828;48.800;9.540;2022-10-31T12:55:09;23.10;99.90
17421;DHT22;8828;48.800;9.540;2022-10-31T12:57:44;22.50;99.90
17421;DHT22;8828;48.800;9.540;2022-10-31T13:00:15;22.00;99.90
17421;DHT22;8828;48.800;9.540;2022-10-31T13:02:50;21.50;99.90
17421;DHT22;8828;48.800;9.540;2022-10-31T13:05:24;21.20;99.90
17421;DHT22;8828;48.800;9.540;2022-10-31T13:07:56;20.80;99.90
17421;DHT22;8828;48.800;9.540;2022-10-31T13:10:31;20.60;99.90
17421;DHT22;8828;48.800;9.540;2022-10-31T13:13:06;20.30;99.90
17421;DHT22;8828;48.800;9.540;2022-10-31T13:15:47;20.10;99.90
17421;DHT22;8828;48.800;9.540;2022-10-31T13:18:23;19.90;99.90
17421;DHT22;8828;48.800;9.540;2022-10-31T13:20:53;19.70;99.90
17421;DHT22;8828;48.800;9.540;2022-10-31T13:23:26;19.60;99.90
17421;DHT22;8828;48.800;9.540;2022-10-31T13:26:22;19.40;99.90
17421;DHT22;8828;48.800;9.540;2022-10-31T13:28:57;19.30;99.90
17421;DHT22;8828;48.800;9.540;2022-10-31T13:31:27;19.20;99.90
17421;DHT22;8828;48.800;9.540;2022-10-31T13:33:58;19.10;99.90
17421;DHT22;8828;48.800;9.540;2022-10-31T13:36:32;19.00;99.90
17421;DHT22;8828;48.800;9.540;2022-10-31T13:39:08;18.90;99.90
17421;DHT22;8828;48.800;9.540;2022-10-31T13:41:48;18.80;99.90
17421;DHT22;8828;48.800;9.540;2022-10-31T13:44:20;18.90;99.90
17421;DHT22;8828;48.800;9.540;2022-10-31T13:46:48;18.80;99.90
17421;DHT22;8828;48.800;9.540;2022-10-31T13:49:37;18.70;99.90
17421;DHT22;8828;48.800;9.540;2022-10-31T13:52:13;18.70;99.90
17421;DHT22;8828;48.800;9.540;2022-10-31T13:54:43;18.60;99.90
17421;DHT22;8828;48.800;9.540;2022-10-31T13:57:22;18.60;99.90
17421;DHT22;8828;48.800;9.540;2022-10-31T14:00:00;18.60;99.90
17421;DHT22;8828;48.800;9.540;2022-10-31T14:02:30;18.70;99.90
17421;DHT22;8828;48.800;9.540;2022-10-31T14:05:00;18.70;99.90
17421;DHT22;8828;48.800;9.540;2022-10-31T14:07:29;18.90;99.90
17421;DHT22;8828;48.800;9.540;2022-10-31T14:10:02;19.10;99.90
17421;DHT22;8828;48.800;9.540;2022-10-31T14:12:35;19.30;99.90
17421;DHT22;8828;48.800;9.540;2022-10-31T14:15:14;19.40;99.90
17421;DHT22;8828;48.800;9.540;2022-10-31T14:17:46;19.50;99.90
17421;DHT22;8828;48.800;9.540;2022-10-31T14:20:26;19.50;99.90
17421;DHT22;8828;48.800;9.540;2022-10-31T14:22:58;19.50;99.90
17421;DHT22;8828;48.800;9.540;2022-10-31T14:25:30;19.40;99.90
17421;DHT22;8828;48.800;9.540;2022-10-31T14:28:01;19.40;99.90
17421;DHT22;8828;48.800;9.540;2022-10-31T14:30:30;19.40;99.90
17421;DHT22;8828;48.800;9.540;2022-10-31T14:33:01;19.30;99.90
17421;DHT22;8828;48.800;9.540;2022-10-31T14:35:46;19.20;99.90
17421;DHT22;8828;48.800;9.540;2022-10-31T14:41:36;19.10;99.90
17421;DHT22;8828;48.800;9.540;2022-10-31T14:47:13;18.90;99.90
17421;DHT22;8828;48.800;9.540;2022-10-31T14:49:57;18.90;99.90
17421;DHT22;8828;48.800;9.540;2022-10-31T14:52:31;18.80;99.90
17421;DHT22;8828;48.800;9.540;2022-10-31T14:54:59;18.80;99.90
17421;DHT22;8828;48.800;9.540;2022-10-31T14:57:31;18.70;99.90
17421;DHT22;8828;48.800;9.540;2022-10-31T15:00:04;18.60;99.90
17421;DHT22;8828;48.800;9.540;2022-10-31T15:02:39;18.50;99.90
17421;DHT22;8828;48.800;9.540;2022-10-31T15:05:13;18.40;99.90
17421;DHT22;8828;48.800;9.540;2022-10-31T15:07:48;18.30;99.90
17421;DHT22;8828;48.800;9.540;2022-10-31T15:10:21;18.20;99.90
17421;DHT22;8828;48.800;9.540;2022-10-31T15:12:49;18.10;99.90
17421;DHT22;8828;48.800;9.540;2022-10-31T15:15:21;18.00;99.90
17421;DHT22;8828;48.800;9.540;2022-10-31T15:17:52;17.90;99.90
17421;DHT22;8828;48.800;9.540;2022-10-31T15:20:23;17.80;99.90
17421;DHT22;8828;48.800;9.540;2022-10-31T15:22:55;17.70;99.90
17421;DHT22;8828;48.800;9.540;2022-10-31T15:25:26;17.60;99.90
17421;DHT22;8828;48.800;9.540;2022-10-31T15:27:55;17.50;99.90
17421;DHT22;8828;48.800;9.540;2022-10-31T15:30:26;17.40;99.90
17421;DHT22;8828;48.800;9.540;2022-10-31T15:32:54;17.30;99.90
17421;DHT22;8828;48.800;9.540;2022-10-31T15:35:28;17.20;99.90
17421;DHT22;8828;48.800;9.540;2022-10-31T15:37:57;17.20;99.90
17421;DHT22;8828;48.800;9.540;2022-10-31T15:40:26;17.10;99.90
17421;DHT22;8828;48.800;9.540;2022-10-31T15:42:56;17.10;99.90
17421;DHT22;8828;48.800;9.540;2022-10-31T15:45:27;17.00;99.90
17421;DHT22;8828;48.800;9.540;2022-10-31T15:48:00;16.90;99.90
17421;DHT22;8828;48.800;9.540;2022-10-31T15:50:32;16.80;99.90
17421;DHT22;8828;48.800;9.540;2022-10-31T15:53:00;16.80;99.90
17421;DHT22;8828;48.800;9.540;2022-10-31T15:55:32;16.70;99.90
17421;DHT22;8828;48.800;9.540;2022-10-31T15:58:02;16.70;99.90
17421;DHT22;8828;48.800;9.540;2022-10-31T16:00:34;16.60;99.90
17421;DHT22;8828;48.800;9.540;2022-10-31T16:03:04;16.60;99.90
17421;DHT22;8828;48.800;9.540;2022-10-31T16:05:35;16.40;99.90
17421;DHT22;8828;48.800;9.540;2022-10-31T16:08:04;16.40;99.90
17421;DHT22;8828;48.800;9.540;2022-10-31T16:10:48;16.30;99.90
17421;DHT22;8828;48.800;9.540;2022-10-31T16:13:16;16.20;99.90
17421;DHT22;8828;48.800;9.540;2022-10-31T16:15:53;16.20;99.90
17421;DHT22;8828;48.800;9.540;2022-10-31T16:18:42;16.10;99.90
17421;DHT22;8828;48.800;9.540;2022-10-31T16:21:11;16.10;99.90
17421;DHT22;8828;48.800;9.540;2022-10-31T16:23:44;16.00;99.90
17421;DHT22;8828;48.800;9.540;2022-10-31T16:26:17;15.90;99.90
17421;DHT22;8828;48.800;9.540;2022-10-31T16:28:51;15.90;99.90
17421;DHT22;8828;48.800;9.540;2022-10-31T16:31:36;15.80;99.90
17421;DHT22;8828;48.800;9.540;2022-10-31T16:34:15;15.80;99.90